ADDS METAR Data INFO
IDs: Format: Raw Decoded Include TAF

Data at: 1752 UTC 15 Dec 2017

KJAS 151735Z AUTO 05003KT 10SM CLR 10/01 A3032 RMK AO2 T00950012
KJAS 151720Z AUTO 01003KT 10SM CLR 09/01 A3033 RMK AO2 T00930013
KJAS 151655Z AUTO 02004KT 10SM CLR 09/01 A3034 RMK AO2 T00860012
KJAS 151635Z AUTO 36004KT 10SM CLR 08/01 A3034 RMK AO2 T00820012
KJAS 151615Z AUTO 04005KT 10SM CLR 08/01 A3034 RMK AO2 T00810011
KJAS 151555Z AUTO 01004KT 10SM CLR 08/01 A3035 RMK AO2 T00790014
KJAS 151535Z AUTO 02003KT 10SM CLR 08/02 A3032 RMK AO2 T00760016
KJAS 151515Z AUTO 01003KT 10SM CLR 07/02 A3032 RMK AO2 T00740017
KJAS 151500Z AUTO 02005KT 10SM CLR 07/02 A3031 RMK AO2 T00720017
KJAS 151435Z AUTO 36004KT 10SM CLR 07/02 A3031 RMK AO2 T00710020
KJAS 151415Z AUTO 00000KT 10SM CLR 07/02 A3029 RMK AO2 T00700018
KJAS 151400Z AUTO 36003KT 10SM CLR 07/02 A3028 RMK AO2 T00700018
KJAS 151335Z AUTO 00000KT 10SM CLR 07/02 A3026 RMK AO2 T00700018
KJAS 151315Z AUTO 03005KT 10SM CLR 07/02 A3024 RMK AO2 T00710020
KJAS 151255Z AUTO 02005KT 10SM CLR 07/03 A3023 RMK AO2 T00720025
KJAS 151240Z AUTO 02003KT 10SM CLR 07/03 A3022 RMK AO2 T00730026
KJAS 151215Z AUTO 01006KT 10SM CLR 08/03 A3022 RMK AO2 T00750025
KJAS 151155Z AUTO 01007KT 10SM CLR 08/02 A3021 RMK AO2 T00770023
KJAS 151140Z AUTO 36007KT 10SM CLR 08/02 A3021 RMK AO2 T00780022
KJAS 151115Z AUTO 36007KT 10SM CLR 08/02 A3021 RMK AO2 T00800024
KJAS 151055Z AUTO 36008KT 10SM CLR 08/02 A3021 RMK AO2 T00830023
KJAS 151035Z AUTO 36007KT 10SM CLR 09/02 A3020 RMK AO2 T00850022
KJAS 151015Z AUTO 36005KT 10SM CLR 09/02 A3020 RMK AO2 T00860020
KJAS 151000Z AUTO 35008KT 10SM CLR 09/02 A3018 RMK AO2 T00860019
KJAS 150935Z AUTO 36007KT 10SM CLR 09/02 A3017 RMK AO2 T00880017
KJAS 150915Z AUTO 35009KT 10SM CLR 09/02 A3017 RMK AO2 T00900017
KJAS 150855Z AUTO 36009KT 10SM CLR 09/02 A3017 RMK AO2 T00900019
KJAS 150840Z AUTO 35008KT 10SM CLR 09/02 A3017 RMK AO2 T00910020
KJAS 150820Z AUTO 35007KT 10SM CLR 09/02 A3017 RMK AO2 T00920022
KJAS 150755Z AUTO 36007KT 10SM CLR 09/03 A3016 RMK AO2 T00920027
KJAS 150735Z AUTO 35007KT 10SM CLR 09/03 A3016 RMK AO2 T00930030
KJAS 150715Z AUTO 36006KT 10SM CLR 09/03 A3015 RMK AO2 T00940034
KJAS 150655Z AUTO 35006KT 10SM CLR 09/04 A3014 RMK AO2 T00940041
KJAS 150635Z AUTO 35005KT 10SM CLR 09/05 A3014 RMK AO2 T00930049
KJAS 150615Z AUTO 35007KT 10SM CLR 09/06 A3013 RMK AO2 T00910060
KJAS 150555Z AUTO 36006KT 10SM CLR 09/06 A3013 RMK AO2 T00890064
KJAS 150535Z AUTO 35005KT 10SM CLR 08/07 A3014 RMK AO2 T00790068
KJAS 150515Z AUTO 34006KT 10SM CLR 07/07 A3014 RMK AO2 T00710067
KJAS 150500Z AUTO 00000KT 10SM CLR 07/07 A3012 RMK AO2 T00710067
KJAS 150435Z AUTO 00000KT 10SM CLR 07/07 A3013 RMK AO2 T00740068
KJAS 150415Z AUTO 00000KT 10SM CLR 08/07 A3012 RMK AO2 T00780070
KJAS 150355Z AUTO 00000KT 10SM CLR 08/07 A3011 RMK AO2 T00840071
KJAS 150335Z AUTO 36003KT 10SM CLR 09/08 A3011 RMK AO2 T00880075
KJAS 150315Z AUTO 00000KT 10SM CLR 08/08 A3010 RMK AO2 T00820075
KJAS 150255Z AUTO 00000KT 10SM CLR 08/07 A3009 RMK AO2 T00780072
KJAS 150235Z AUTO 00000KT 10SM CLR 08/08 A3009 RMK AO2 T00840077
KJAS 150215Z AUTO 00000KT 10SM CLR 08/08 A3008 RMK AO2 T00840077
KJAS 150155Z AUTO 00000KT 10SM CLR 09/08 A3007 RMK AO2 T00870077
KJAS 150135Z AUTO 00000KT 10SM CLR 09/08 A3007 RMK AO2 T00930082
KJAS 150115Z AUTO 00000KT 10SM CLR 09/08 A3006 RMK AO2 T00910081
KJAS 150055Z AUTO 00000KT 10SM CLR 09/08 A3005 RMK AO2 T00910079
KJAS 150035Z AUTO 00000KT 10SM CLR 10/08 A3005 RMK AO2 T00950081
KJAS 150015Z AUTO 00000KT 10SM CLR 10/08 A3003 RMK AO2 T00960080
KJAS 142355Z AUTO 00000KT 10SM CLR 10/08 A3003 RMK AO2 T01020080
KJAS 142335Z AUTO 33003KT 10SM CLR 11/09 A3003 RMK AO2 T01070085
KJAS 142315Z AUTO 00000KT 10SM CLR 12/09 A3001 RMK AO2 T01190089
KJAS 142255Z AUTO 00000KT 10SM CLR 13/09 A3001 RMK AO2 T01260089
KJAS 142235Z AUTO 00000KT 10SM CLR 14/09 A2999 RMK AO2 T01360088
KJAS 142215Z AUTO 00000KT 10SM CLR 14/07 A3000 RMK AO2 T01440072
KJAS 142155Z AUTO 00000KT 10SM CLR 15/07 A3000 RMK AO2 T01470069
KJAS 142135Z AUTO 00000KT 10SM CLR 15/07 A2999 RMK AO2 T01490067
KJAS 142115Z AUTO 00000KT 10SM CLR 15/06 A2999 RMK AO2 T01500064
KJAS 142055Z AUTO 00000KT 10SM CLR 15/06 A2998 RMK AO2 T01500062
KJAS 142035Z AUTO 28004KT 10SM CLR 15/06 A2998 RMK AO2 T01480056
KJAS 142015Z AUTO 00000KT 10SM CLR 15/06 A2997 RMK AO2 T01470055
KJAS 141955Z AUTO 00000KT 10SM CLR 15/06 A2998 RMK AO2 T01460057
KJAS 141935Z AUTO 00000KT 10SM CLR 15/07 A2998 RMK AO2 T01450070
KJAS 141920Z AUTO 00000KT 10SM CLR 14/07 A2999 RMK AO2 T01440066
KJAS 141855Z AUTO 00000KT 10SM CLR 14/07 A2999 RMK AO2 T01410070
KJAS 141835Z AUTO 00000KT 10SM CLR 14/07 A3000 RMK AO2 T01390071
KJAS 141815Z AUTO 00000KT 10SM CLR 14/07 A3001 RMK AO2 T01360070
KJAS 141755Z AUTO 00000KT 10SM CLR 13/07 A3002 RMK AO2 T01340068
KJAS 141735Z AUTO 00000KT 10SM CLR 13/07 A3002 RMK AO2 T01280069
KJAS 141715Z AUTO 00000KT 10SM CLR 12/07 A3003 RMK AO2 T01230071
KJAS 141655Z AUTO 00000KT 10SM CLR 12/07 A3003 RMK AO2 T01170070
KJAS 141635Z AUTO 00000KT 10SM CLR 11/07 A3003 RMK AO2 T01100070
KJAS 141615Z AUTO 00000KT 10SM CLR 10/07 A3003 RMK AO2 T01040070
KJAS 141555Z AUTO 00000KT 10SM CLR 10/07 A3003 RMK AO2 T00980066
KJAS 141535Z AUTO 00000KT 10SM CLR 09/06 A3003 RMK AO2 T00940063
KJAS 141515Z AUTO 00000KT 10SM CLR 09/06 A3002 RMK AO2 T00900059
KJAS 141455Z AUTO 00000KT 10SM CLR 08/06 A3001 RMK AO2 T00820063
KJAS 141435Z AUTO 00000KT 10SM CLR 07/06 A3001 RMK AO2 T00700063
KJAS 141415Z AUTO 00000KT 10SM CLR 06/06 A3000 RMK AO2 T00590055
KJAS 141355Z AUTO 00000KT 10SM CLR 05/04 A2999 RMK AO2 T00470044
KJAS 141335Z AUTO 00000KT 10SM CLR 04/04 A2999 RMK AO2 T00370035
KJAS 141315Z AUTO 00000KT 10SM CLR 04/04 A2998 RMK AO2 T00400036
KJAS 141300Z AUTO 00000KT 10SM CLR 04/04 A2998 RMK AO2 T00420038
KJAS 141235Z AUTO 00000KT 10SM CLR 04/04 A2997 RMK AO2 T00430040
KJAS 141220Z AUTO 00000KT 10SM CLR 04/04 A2997 RMK AO2 T00440041
KJAS 141155Z AUTO 00000KT 10SM CLR 04/04 A2996 RMK AO2 T00420040
KJAS 141140Z AUTO 00000KT 10SM CLR 04/04 A2996 RMK AO2 T00420040
KJAS 141115Z AUTO 00000KT 10SM CLR 04/03 A2996 RMK AO2 T00350034
KJAS 141055Z AUTO 00000KT 10SM CLR 03/03 A2997 RMK AO2 T00280028
KJAS 141035Z AUTO 00000KT 10SM CLR 02/02 A2996 RMK AO2 T00240024
KJAS 141015Z AUTO 00000KT 10SM CLR 02/02 A2996 RMK AO2 T00190019
KJAS 140955Z AUTO 00000KT 10SM CLR 02/02 A2996 RMK AO2 T00240022
KJAS 140935Z AUTO 00000KT 10SM CLR 03/03 A2996 RMK AO2 T00270026
KJAS 140915Z AUTO 00000KT 10SM CLR 03/03 A2996 RMK AO2 T00260025
KJAS 140855Z AUTO 00000KT 4SM BR CLR 03/03 A2997 RMK AO2 T00280026
KJAS 140835Z AUTO 00000KT 10SM CLR 03/03 A2997 RMK AO2 T00280027
KJAS 140815Z AUTO 00000KT 10SM CLR 03/02 A2998 RMK AO2 T00250022
KJAS 140755Z AUTO 00000KT 10SM CLR 03/03 A2998 RMK AO2 T00280025
KJAS 140735Z AUTO 00000KT 10SM CLR 03/03 A2998 RMK AO2 T00290026
KJAS 140715Z AUTO 00000KT 10SM CLR 03/03 A2999 RMK AO2 T00300026
KJAS 140650Z AUTO 00000KT 10SM CLR 03/03 A2998 RMK AO2 T00330027
KJAS 140635Z AUTO 00000KT 10SM CLR 04/03 A2998 RMK AO2 T00360029
KJAS 140615Z AUTO 00000KT 10SM CLR 04/03 A2998 RMK AO2 T00390031
KJAS 140555Z AUTO 00000KT 10SM CLR 05/04 A2998 RMK AO2 T00460035